Historique des stations

Station météo de Salbris

Altitude de la station : 113 m







Données météorologiques pour le 28/11/2021
Date
Heure
Températures Humidité Point de rosée Vitesse
du vent
Direction Rafales Windchill Pression Pluviométrie
Cumul
Date
Heure
Températures Humidité Point de rosée Vitesse
du vent
Direction Rafales Windchill Pression Pluviométrie
Cumul
28/11/2021 20:590.3 °C91 %-1.1 °C-N29 km/h0.6 1009 hPa2.6 mm
28/11/2021 20:440.3 °C91 %-1.1 °C3 km/hN29 km/h-0.6 1008 hPa2.6 mm
28/11/2021 20:290.5 °C90 %-1.1 °C3 km/hN29 km/h-0.6 1008 hPa2.6 mm
28/11/2021 20:140.8 °C89 %-0.6 °C-N29 km/h0.6 1008 hPa2.6 mm
28/11/2021 19:591.1 °C89 %-0.6 °C2 km/hN29 km/h0.6 1008 hPa2.6 mm
28/11/2021 19:441.3 °C88 %-0.6 °C2 km/hN29 km/h0.6 1008 hPa2.6 mm
28/11/2021 19:291.6 °C88 %0.0 °C2 km/hN29 km/h1.1 1008 hPa2.6 mm
28/11/2021 19:141.9 °C87 %0.0 °C5 km/hN29 km/h0.6 1008 hPa2.6 mm
28/11/2021 18:592.3 °C86 %0.0 °C2 km/hN29 km/h1.7 1008 hPa2.6 mm
28/11/2021 18:442.5 °C85 %0.0 °C5 km/hN29 km/h1.7 1007 hPa2.6 mm
28/11/2021 18:292.7 °C85 %0.6 °C8 km/hN29 km/h0.6 1007 hPa2.6 mm
28/11/2021 18:143.1 °C85 %1.1 °C3 km/hN29 km/h2.2 1007 hPa2.6 mm
28/11/2021 17:593.3 °C84 %1.1 °C13 km/hN29 km/h0.6 1007 hPa2.6 mm
28/11/2021 17:443.7 °C85 %1.7 °C6 km/hN29 km/h2.2 1007 hPa2.6 mm
28/11/2021 17:293.7 °C86 %1.7 °C5 km/hN29 km/h2.8 1007 hPa2.6 mm
28/11/2021 17:143.8 °C85 %1.7 °C3 km/hN29 km/h2.8 1006 hPa2.6 mm
28/11/2021 16:593.9 °C84 %1.7 °C6 km/hN29 km/h2.2 1006 hPa2.6 mm
28/11/2021 16:444.2 °C82 %1.1 °C3 km/hN29 km/h3.3 1006 hPa2.6 mm
28/11/2021 16:294.4 °C80 %1.1 °C6 km/hN29 km/h2.8 1006 hPa2.6 mm
28/11/2021 16:144.8 °C81 %1.7 °C8 km/hN29 km/h2.8 1006 hPa2.6 mm
28/11/2021 15:594.9 °C80 %1.7 °C10 km/hN29 km/h2.8 1006 hPa2.6 mm
28/11/2021 15:444.8 °C85 %2.8 °C3 km/hN29 km/h4.4 1006 hPa2.6 mm
28/11/2021 15:294.7 °C85 %2.2 °C3 km/hN29 km/h4.4 1006 hPa2.6 mm
28/11/2021 15:144.7 °C86 %2.8 °C2 km/hN29 km/h3.9 1006 hPa2.6 mm
28/11/2021 14:594.6 °C86 %2.2 °C6 km/hN29 km/h2.8 1006 hPa2.6 mm
28/11/2021 14:444.5 °C89 %2.8 °C18 km/hN29 km/h1.1 1006 hPa2.6 mm
28/11/2021 14:294.1 °C90 %2.8 °C10 km/hN29 km/h1.1 1006 hPa2.6 mm
28/11/2021 14:144.0 °C90 %2.8 °C3 km/hN29 km/h2.8 1006 hPa2.6 mm
28/11/2021 13:594.2 °C92 %3.3 °C6 km/hN29 km/h2.8 1006 hPa2.6 mm
28/11/2021 13:444.1 °C90 %2.8 °C-N29 km/h3.9 1006 hPa2.6 mm
28/11/2021 13:294.3 °C89 %2.8 °C6 km/hN29 km/h2.8 1006 hPa2.6 mm
28/11/2021 13:144.2 °C89 %2.8 °C6 km/hN29 km/h2.8 1005 hPa2.6 mm
28/11/2021 12:594.1 °C91 %2.8 °C2 km/hN29 km/h3.3 1005 hPa2.6 mm
28/11/2021 12:444.0 °C92 %2.8 °C10 km/hN29 km/h1.1 1005 hPa2.6 mm
28/11/2021 12:293.9 °C92 %2.8 °C5 km/hN29 km/h2.8 1005 hPa2.6 mm
28/11/2021 12:143.8 °C92 %2.8 °C2 km/hN29 km/h3.3 1005 hPa2.6 mm
28/11/2021 11:593.8 °C93 %2.8 °C10 km/hN29 km/h1.1 1005 hPa2.4 mm
28/11/2021 11:433.8 °C93 %2.8 °C3 km/hN29 km/h2.8 1006 hPa2.4 mm
28/11/2021 11:293.7 °C93 %2.8 °C6 km/hN29 km/h2.2 1006 hPa2.4 mm
28/11/2021 11:143.6 °C93 %2.8 °C13 km/hN29 km/h1.1 1006 hPa2.4 mm
28/11/2021 10:593.4 °C94 %2.8 °C8 km/hN29 km/h1.1 1006 hPa2.4 mm
28/11/2021 10:443.4 °C93 %2.2 °C6 km/hN29 km/h1.7 1006 hPa2.4 mm
28/11/2021 10:293.3 °C94 %2.8 °C5 km/hN29 km/h2.2 1005 hPa2.4 mm
28/11/2021 10:143.3 °C94 %2.8 °C3 km/hN29 km/h2.2 1005 hPa2.4 mm
28/11/2021 09:593.3 °C94 %2.2 °C2 km/hN29 km/h2.8 1005 hPa2.4 mm
28/11/2021 09:443.3 °C94 %2.2 °C10 km/hN29 km/h0.6 1005 hPa2.4 mm
28/11/2021 09:293.3 °C95 %2.8 °C8 km/hN29 km/h1.1 1005 hPa2.4 mm
28/11/2021 09:143.3 °C95 %2.8 °C2 km/hN29 km/h2.8 1004 hPa2.4 mm
28/11/2021 08:593.1 °C94 %2.2 °C5 km/hN29 km/h2.2 1004 hPa2.4 mm
28/11/2021 08:443.1 °C94 %2.2 °C2 km/hN29 km/h2.8 1004 hPa2.4 mm
28/11/2021 08:293.0 °C94 %2.2 °C5 km/hN29 km/h1.7 1004 hPa2.4 mm
28/11/2021 08:142.9 °C94 %2.2 °C3 km/hN29 km/h1.7 1004 hPa2.4 mm
28/11/2021 07:592.9 °C94 %2.2 °C8 km/hN29 km/h0.6 1004 hPa2.2 mm
28/11/2021 07:442.9 °C94 %2.2 °C8 km/hN29 km/h0.6 1004 hPa2.2 mm
28/11/2021 07:293.0 °C94 %2.2 °C3 km/hN29 km/h1.7 1004 hPa2.2 mm
28/11/2021 07:142.9 °C94 %2.2 °C2 km/hN29 km/h2.2 1004 hPa2.2 mm
28/11/2021 06:592.9 °C94 %2.2 °C6 km/hN29 km/h1.1 1003 hPa2 mm
28/11/2021 06:442.9 °C94 %2.2 °C14 km/hN29 km/h-0.6 1003 hPa2 mm
28/11/2021 06:292.9 °C94 %2.2 °C6 km/hN29 km/h1.1 1003 hPa2 mm
28/11/2021 06:143.0 °C94 %2.2 °C6 km/hN29 km/h1.1 1003 hPa2 mm
28/11/2021 05:593.2 °C94 %2.2 °C8 km/hN29 km/h1.1 1003 hPa1.8 mm
28/11/2021 05:443.3 °C93 %2.2 °C2 km/hN29 km/h2.8 1003 hPa1.6 mm
28/11/2021 05:293.3 °C94 %2.8 °C8 km/hN29 km/h1.1 1003 hPa1.6 mm
28/11/2021 05:143.4 °C94 %2.8 °C8 km/hN29 km/h1.1 1003 hPa1.6 mm
28/11/2021 04:593.4 °C94 %2.8 °C3 km/hN29 km/h2.2 1002 hPa1.4 mm
28/11/2021 04:453.4 °C94 %2.8 °C6 km/hN21 km/h1.7 1002 hPa1.4 mm
28/11/2021 04:443.4 °C94 %2.8 °C10 km/hN29 km/h0.6 1002 hPa1.4 mm
28/11/2021 04:303.4 °C94 %2.8 °C8 km/hN18 km/h1.1 1002 hPa1.4 mm
28/11/2021 04:293.4 °C94 %2.8 °C5 km/hN29 km/h2.2 1002 hPa1.4 mm
28/11/2021 04:153.4 °C94 %2.8 °C6 km/hN21 km/h1.7 1002 hPa1.4 mm
28/11/2021 04:143.4 °C94 %2.8 °C6 km/hN29 km/h1.7 1002 hPa1.4 mm
28/11/2021 04:003.5 °C94 %2.8 °C6 km/hN16 km/h1.7 1002 hPa1.4 mm
28/11/2021 03:593.6 °C94 %2.8 °C6 km/hN29 km/h1.7 1002 hPa1.4 mm
28/11/2021 03:453.6 °C94 %2.8 °C6 km/hN21 km/h2.2 1002 hPa1.4 mm
28/11/2021 03:443.6 °C94 %2.8 °C10 km/hN29 km/h1.1 1002 hPa1.4 mm
28/11/2021 03:303.7 °C94 %2.8 °C3 km/hN27 km/h2.8 1002 hPa1.4 mm
28/11/2021 03:293.7 °C94 %2.8 °C3 km/hN29 km/h2.8 1002 hPa1.4 mm
28/11/2021 03:153.7 °C94 %2.8 °C8 km/hN14 km/h1.7 1002 hPa1.4 mm
28/11/2021 03:143.7 °C94 %2.8 °C14 km/hN29 km/h0.6 1002 hPa1.4 mm
28/11/2021 03:003.8 °C94 %2.8 °C3 km/hN16 km/h2.8 1002 hPa1.4 mm
28/11/2021 02:593.8 °C94 %2.8 °C3 km/hN29 km/h2.8 1002 hPa1.4 mm
28/11/2021 02:453.8 °C94 %2.8 °C6 km/hN18 km/h2.2 1002 hPa1.4 mm
28/11/2021 02:443.8 °C94 %2.8 °C14 km/hN29 km/h0.6 1002 hPa1.4 mm
28/11/2021 02:303.8 °C94 %2.8 °C10 km/hN23 km/h1.1 1002 hPa1.4 mm
28/11/2021 02:293.8 °C94 %2.8 °C16 km/hN29 km/h0.6 1002 hPa1.4 mm
28/11/2021 02:153.8 °C94 %2.8 °C14 km/hN24 km/h0.6 1001 hPa1.4 mm
28/11/2021 02:143.8 °C95 %3.3 °C16 km/hN29 km/h0.6 1001 hPa1.4 mm
28/11/2021 02:003.8 °C94 %2.8 °C16 km/hN29 km/h0.6 1001 hPa1.2 mm
28/11/2021 01:453.8 °C94 %2.8 °C16 km/hN29 km/h0.6 1001 hPa1.2 mm
28/11/2021 01:303.8 °C94 %2.8 °C10 km/hN29 km/h1.1 1001 hPa1 mm
28/11/2021 01:153.8 °C94 %2.8 °C5 km/hN29 km/h2.8 1001 hPa1 mm
28/11/2021 00:593.7 °C95 %2.8 °C6 km/hN29 km/h2.2 1001 hPa0.8 mm
28/11/2021 00:443.6 °C95 %2.8 °C16 km/hN29 km/h-0.6 1001 hPa0.8 mm
28/11/2021 00:293.6 °C94 %2.8 °C8 km/hN29 km/h1.1 1001 hPa0.8 mm
28/11/2021 00:143.6 °C95 %2.8 °C13 km/hN21 km/h1.1 1001 hPa0.6 mm


Minima :

Température : 0.3 °C
Humidité : 80 %
Point de rosée : -1.1 °C
Vent moyen : 2 km/h
Windchill : -0.6
Pression atm. : 1001 hPa
Maxima :

Température : 4.9 °C
Humidité : 95 %
Point de rosée : 3.3 °C
Vent moyen : 18 km/h
Windchill : 4.4
Pression atm. : 1009 hPa
Rafales max : 29 km/h
Cumul de pluie sur 24H : 2.6 mm

Salbris est une commune du département Loir-et-Cher (41).
La station météorologique du réseau de l'association la plus proche de Salbris est celle de Orçay



Icône Facebook Association Météo Centre Icône Twitter Association Météo Centre Icône Chaîne Youtube Association Météo Centre Icône contact Association Météo Centre Icône Insta Association Météo Centre